sensor_id;sensor_type;location;lat;lon;timestamp;P1;durP1;ratioP1;P2;durP2;ratioP2
53339;SDS011;46212;50.258;19.062;2022-11-20T00:00:53;173.10;;;77.28;;
53339;SDS011;46212;50.258;19.062;2022-11-20T00:03:18;161.38;;;77.93;;
53339;SDS011;46212;50.258;19.062;2022-11-20T00:05:44;196.43;;;88.78;;
53339;SDS011;46212;50.258;19.062;2022-11-20T00:08:10;170.50;;;75.70;;
53339;SDS011;46212;50.258;19.062;2022-11-20T00:10:36;182.32;;;81.88;;
53339;SDS011;46212;50.258;19.062;2022-11-20T00:13:02;178.55;;;77.95;;
53339;SDS011;46212;50.258;19.062;2022-11-20T00:15:28;163.35;;;74.72;;
53339;SDS011;46212;50.258;19.062;2022-11-20T00:17:53;168.88;;;77.00;;
53339;SDS011;46212;50.258;19.062;2022-11-20T00:20:18;171.65;;;71.28;;
53339;SDS011;46212;50.258;19.062;2022-11-20T00:22:44;159.43;;;69.53;;
53339;SDS011;46212;50.258;19.062;2022-11-20T00:25:09;165.65;;;69.05;;
53339;SDS011;46212;50.258;19.062;2022-11-20T00:27:34;152.10;;;63.92;;
53339;SDS011;46212;50.258;19.062;2022-11-20T00:30:00;146.00;;;65.65;;
53339;SDS011;46212;50.258;19.062;2022-11-20T00:32:25;187.98;;;81.53;;
53339;SDS011;46212;50.258;19.062;2022-11-20T00:34:51;146.50;;;65.70;;
53339;SDS011;46212;50.258;19.062;2022-11-20T00:37:16;149.77;;;67.13;;
53339;SDS011;46212;50.258;19.062;2022-11-20T00:39:41;136.63;;;61.03;;
53339;SDS011;46212;50.258;19.062;2022-11-20T00:42:07;139.88;;;61.05;;
53339;SDS011;46212;50.258;19.062;2022-11-20T00:44:32;139.20;;;61.63;;
53339;SDS011;46212;50.258;19.062;2022-11-20T00:46:57;139.15;;;60.95;;
53339;SDS011;46212;50.258;19.062;2022-11-20T00:49:23;132.00;;;60.13;;
53339;SDS011;46212;50.258;19.062;2022-11-20T00:51:48;131.07;;;61.63;;
53339;SDS011;46212;50.258;19.062;2022-11-20T00:54:13;136.70;;;56.80;;
53339;SDS011;46212;50.258;19.062;2022-11-20T00:56:39;126.90;;;58.70;;
53339;SDS011;46212;50.258;19.062;2022-11-20T00:59:05;129.45;;;58.42;;
53339;SDS011;46212;50.258;19.062;2022-11-20T01:01:30;139.95;;;64.50;;
53339;SDS011;46212;50.258;19.062;2022-11-20T01:03:56;136.75;;;64.07;;
53339;SDS011;46212;50.258;19.062;2022-11-20T01:08:54;155.85;;;72.97;;
53339;SDS011;46212;50.258;19.062;2022-11-20T01:11:22;177.65;;;77.47;;
53339;SDS011;46212;50.258;19.062;2022-11-20T01:13:50;187.52;;;82.32;;
53339;SDS011;46212;50.258;19.062;2022-11-20T01:16:18;171.23;;;76.20;;
53339;SDS011;46212;50.258;19.062;2022-11-20T01:18:46;172.75;;;76.40;;
53339;SDS011;46212;50.258;19.062;2022-11-20T01:21:15;181.43;;;77.80;;
53339;SDS011;46212;50.258;19.062;2022-11-20T01:23:46;155.05;;;72.88;;
53339;SDS011;46212;50.258;19.062;2022-11-20T01:26:13;164.75;;;74.55;;
53339;SDS011;46212;50.258;19.062;2022-11-20T01:28:49;152.20;;;68.38;;
53339;SDS011;46212;50.258;19.062;2022-11-20T01:31:25;174.23;;;74.90;;
53339;SDS011;46212;50.258;19.062;2022-11-20T01:36:19;153.32;;;66.05;;
53339;SDS011;46212;50.258;19.062;2022-11-20T01:38:46;157.57;;;72.50;;
53339;SDS011;46212;50.258;19.062;2022-11-20T01:41:13;166.40;;;73.78;;
53339;SDS011;46212;50.258;19.062;2022-11-20T01:46:26;158.38;;;69.55;;
53339;SDS011;46212;50.258;19.062;2022-11-20T01:48:57;151.80;;;67.70;;
53339;SDS011;46212;50.258;19.062;2022-11-20T01:51:34;149.80;;;67.70;;
53339;SDS011;46212;50.258;19.062;2022-11-20T01:54:09;141.05;;;65.25;;
53339;SDS011;46212;50.258;19.062;2022-11-20T01:56:38;147.85;;;67.22;;
53339;SDS011;46212;50.258;19.062;2022-11-20T01:59:07;145.70;;;66.63;;
53339;SDS011;46212;50.258;19.062;2022-11-20T02:01:35;151.70;;;66.97;;
53339;SDS011;46212;50.258;19.062;2022-11-20T02:04:01;141.05;;;68.05;;
53339;SDS011;46212;50.258;19.062;2022-11-20T02:06:28;144.05;;;61.55;;
53339;SDS011;46212;50.258;19.062;2022-11-20T02:08:56;139.85;;;65.60;;
53339;SDS011;46212;50.258;19.062;2022-11-20T02:11:21;152.43;;;63.33;;
53339;SDS011;46212;50.258;19.062;2022-11-20T02:13:47;147.70;;;66.03;;
53339;SDS011;46212;50.258;19.062;2022-11-20T02:16:15;147.95;;;68.32;;
53339;SDS011;46212;50.258;19.062;2022-11-20T02:18:43;159.35;;;70.60;;
53339;SDS011;46212;50.258;19.062;2022-11-20T02:21:21;159.73;;;68.53;;
53339;SDS011;46212;50.258;19.062;2022-11-20T02:23:57;159.55;;;70.57;;
53339;SDS011;46212;50.258;19.062;2022-11-20T02:26:23;157.93;;;70.75;;
53339;SDS011;46212;50.258;19.062;2022-11-20T02:28:49;157.85;;;70.47;;
53339;SDS011;46212;50.258;19.062;2022-11-20T02:31:15;134.48;;;65.25;;
53339;SDS011;46212;50.258;19.062;2022-11-20T02:33:41;144.73;;;65.93;;
53339;SDS011;46212;50.258;19.062;2022-11-20T02:36:07;154.25;;;60.97;;
53339;SDS011;46212;50.258;19.062;2022-11-20T02:38:36;141.60;;;64.05;;
53339;SDS011;46212;50.258;19.062;2022-11-20T02:41:01;143.88;;;64.78;;
53339;SDS011;46212;50.258;19.062;2022-11-20T02:43:27;147.85;;;62.45;;
53339;SDS011;46212;50.258;19.062;2022-11-20T02:45:53;125.20;;;64.05;;
53339;SDS011;46212;50.258;19.062;2022-11-20T02:48:18;136.10;;;61.83;;
53339;SDS011;46212;50.258;19.062;2022-11-20T02:50:43;137.18;;;60.67;;
53339;SDS011;46212;50.258;19.062;2022-11-20T02:53:09;147.02;;;64.97;;
53339;SDS011;46212;50.258;19.062;2022-11-20T02:55:34;130.75;;;63.40;;
53339;SDS011;46212;50.258;19.062;2022-11-20T02:58:01;130.88;;;63.58;;
53339;SDS011;46212;50.258;19.062;2022-11-20T03:00:26;138.10;;;62.60;;
53339;SDS011;46212;50.258;19.062;2022-11-20T03:02:51;148.05;;;64.03;;
53339;SDS011;46212;50.258;19.062;2022-11-20T03:05:17;147.93;;;63.38;;
53339;SDS011;46212;50.258;19.062;2022-11-20T03:07:43;133.38;;;59.83;;
53339;SDS011;46212;50.258;19.062;2022-11-20T03:10:09;136.25;;;60.40;;
53339;SDS011;46212;50.258;19.062;2022-11-20T03:12:34;126.97;;;59.97;;
53339;SDS011;46212;50.258;19.062;2022-11-20T03:14:59;141.10;;;61.03;;
53339;SDS011;46212;50.258;19.062;2022-11-20T03:17:25;140.55;;;58.88;;
53339;SDS011;46212;50.258;19.062;2022-11-20T03:19:50;135.75;;;59.95;;
53339;SDS011;46212;50.258;19.062;2022-11-20T03:22:15;141.02;;;60.78;;
53339;SDS011;46212;50.258;19.062;2022-11-20T03:24:41;140.20;;;60.95;;
53339;SDS011;46212;50.258;19.062;2022-11-20T03:27:06;144.52;;;62.50;;
53339;SDS011;46212;50.258;19.062;2022-11-20T03:29:31;137.27;;;62.17;;
53339;SDS011;46212;50.258;19.062;2022-11-20T03:31:57;138.52;;;63.15;;
53339;SDS011;46212;50.258;19.062;2022-11-20T03:34:22;138.13;;;64.50;;
53339;SDS011;46212;50.258;19.062;2022-11-20T03:36:48;135.68;;;60.42;;
53339;SDS011;46212;50.258;19.062;2022-11-20T03:39:13;136.82;;;65.18;;
53339;SDS011;46212;50.258;19.062;2022-11-20T03:41:39;150.48;;;61.15;;
53339;SDS011;46212;50.258;19.062;2022-11-20T03:44:07;141.77;;;65.32;;
53339;SDS011;46212;50.258;19.062;2022-11-20T03:46:34;143.20;;;60.53;;
53339;SDS011;46212;50.258;19.062;2022-11-20T03:48:59;138.80;;;61.53;;
53339;SDS011;46212;50.258;19.062;2022-11-20T03:51:26;131.30;;;63.78;;
53339;SDS011;46212;50.258;19.062;2022-11-20T03:53:54;129.93;;;57.78;;
53339;SDS011;46212;50.258;19.062;2022-11-20T03:56:25;146.52;;;62.75;;
53339;SDS011;46212;50.258;19.062;2022-11-20T03:58:52;128.70;;;59.92;;
53339;SDS011;46212;50.258;19.062;2022-11-20T04:01:28;154.32;;;63.97;;
53339;SDS011;46212;50.258;19.062;2022-11-20T04:03:56;140.20;;;58.03;;
53339;SDS011;46212;50.258;19.062;2022-11-20T04:06:24;133.23;;;60.22;;
53339;SDS011;46212;50.258;19.062;2022-11-20T04:08:53;126.40;;;61.15;;
53339;SDS011;46212;50.258;19.062;2022-11-20T04:11:23;138.82;;;63.65;;
53339;SDS011;46212;50.258;19.062;2022-11-20T04:13:54;138.60;;;65.00;;
53339;SDS011;46212;50.258;19.062;2022-11-20T04:16:22;138.60;;;63.83;;
53339;SDS011;46212;50.258;19.062;2022-11-20T04:21:18;124.85;;;58.38;;
53339;SDS011;46212;50.258;19.062;2022-11-20T04:23:43;136.93;;;59.80;;
53339;SDS011;46212;50.258;19.062;2022-11-20T04:26:09;138.93;;;61.33;;
53339;SDS011;46212;50.258;19.062;2022-11-20T04:28:37;139.27;;;60.88;;
53339;SDS011;46212;50.258;19.062;2022-11-20T04:31:10;133.00;;;62.70;;
53339;SDS011;46212;50.258;19.062;2022-11-20T04:33:37;128.88;;;60.92;;
53339;SDS011;46212;50.258;19.062;2022-11-20T04:36:09;146.68;;;63.42;;
53339;SDS011;46212;50.258;19.062;2022-11-20T04:38:37;139.98;;;63.80;;
53339;SDS011;46212;50.258;19.062;2022-11-20T04:41:04;142.68;;;61.20;;
53339;SDS011;46212;50.258;19.062;2022-11-20T04:43:30;131.23;;;59.83;;
53339;SDS011;46212;50.258;19.062;2022-11-20T04:45:57;131.90;;;62.35;;
53339;SDS011;46212;50.258;19.062;2022-11-20T04:48:23;134.88;;;60.35;;
53339;SDS011;46212;50.258;19.062;2022-11-20T04:50:50;137.90;;;61.47;;
53339;SDS011;46212;50.258;19.062;2022-11-20T04:53:16;134.60;;;61.88;;
53339;SDS011;46212;50.258;19.062;2022-11-20T04:55:42;134.13;;;59.03;;
53339;SDS011;46212;50.258;19.062;2022-11-20T04:58:07;128.65;;;58.10;;
53339;SDS011;46212;50.258;19.062;2022-11-20T05:00:33;146.65;;;59.53;;
53339;SDS011;46212;50.258;19.062;2022-11-20T05:02:58;130.48;;;59.53;;
53339;SDS011;46212;50.258;19.062;2022-11-20T05:05:24;121.95;;;57.50;;
53339;SDS011;46212;50.258;19.062;2022-11-20T05:07:49;130.30;;;57.35;;
53339;SDS011;46212;50.258;19.062;2022-11-20T05:10:14;128.43;;;57.40;;
53339;SDS011;46212;50.258;19.062;2022-11-20T05:12:40;122.28;;;55.67;;
53339;SDS011;46212;50.258;19.062;2022-11-20T05:15:06;121.43;;;55.22;;
53339;SDS011;46212;50.258;19.062;2022-11-20T05:17:31;129.07;;;58.35;;
53339;SDS011;46212;50.258;19.062;2022-11-20T05:19:56;121.93;;;55.80;;
53339;SDS011;46212;50.258;19.062;2022-11-20T05:22:22;118.22;;;59.47;;
53339;SDS011;46212;50.258;19.062;2022-11-20T05:24:47;127.25;;;56.35;;
53339;SDS011;46212;50.258;19.062;2022-11-20T05:27:13;136.27;;;60.20;;
53339;SDS011;46212;50.258;19.062;2022-11-20T05:29:38;138.25;;;60.47;;
53339;SDS011;46212;50.258;19.062;2022-11-20T05:32:03;119.70;;;53.95;;
53339;SDS011;46212;50.258;19.062;2022-11-20T05:36:56;116.50;;;53.33;;
53339;SDS011;46212;50.258;19.062;2022-11-20T05:39:21;124.15;;;54.55;;
53339;SDS011;46212;50.258;19.062;2022-11-20T05:41:47;124.63;;;56.70;;
53339;SDS011;46212;50.258;19.062;2022-11-20T05:44:32;128.00;;;54.72;;
53339;SDS011;46212;50.258;19.062;2022-11-20T05:46:57;126.40;;;55.70;;
53339;SDS011;46212;50.258;19.062;2022-11-20T05:49:22;123.30;;;55.78;;
53339;SDS011;46212;50.258;19.062;2022-11-20T05:51:48;122.40;;;54.58;;
53339;SDS011;46212;50.258;19.062;2022-11-20T05:54:13;129.68;;;57.92;;
53339;SDS011;46212;50.258;19.062;2022-11-20T05:56:38;137.43;;;56.95;;
53339;SDS011;46212;50.258;19.062;2022-11-20T05:59:04;124.60;;;53.15;;
53339;SDS011;46212;50.258;19.062;2022-11-20T06:01:29;124.20;;;56.45;;
53339;SDS011;46212;50.258;19.062;2022-11-20T06:03:54;118.15;;;56.13;;
53339;SDS011;46212;50.258;19.062;2022-11-20T06:06:20;124.55;;;56.85;;
53339;SDS011;46212;50.258;19.062;2022-11-20T06:08:46;107.90;;;55.78;;
53339;SDS011;46212;50.258;19.062;2022-11-20T06:11:12;121.00;;;54.35;;
53339;SDS011;46212;50.258;19.062;2022-11-20T06:13:39;114.38;;;56.35;;
53339;SDS011;46212;50.258;19.062;2022-11-20T06:16:05;127.57;;;54.53;;
53339;SDS011;46212;50.258;19.062;2022-11-20T06:18:30;127.85;;;55.47;;
53339;SDS011;46212;50.258;19.062;2022-11-20T06:20:59;117.85;;;56.20;;
53339;SDS011;46212;50.258;19.062;2022-11-20T06:23:32;121.13;;;53.30;;
53339;SDS011;46212;50.258;19.062;2022-11-20T06:26:01;121.13;;;55.78;;
53339;SDS011;46212;50.258;19.062;2022-11-20T06:28:31;123.20;;;55.92;;
53339;SDS011;46212;50.258;19.062;2022-11-20T06:30:56;117.18;;;52.55;;
53339;SDS011;46212;50.258;19.062;2022-11-20T06:33:22;124.33;;;56.93;;
53339;SDS011;46212;50.258;19.062;2022-11-20T06:35:48;122.90;;;56.80;;
53339;SDS011;46212;50.258;19.062;2022-11-20T06:38:13;130.43;;;57.75;;
53339;SDS011;46212;50.258;19.062;2022-11-20T06:40:42;136.05;;;61.75;;
53339;SDS011;46212;50.258;19.062;2022-11-20T06:43:08;137.18;;;59.75;;
53339;SDS011;46212;50.258;19.062;2022-11-20T06:45:35;145.30;;;63.05;;
53339;SDS011;46212;50.258;19.062;2022-11-20T06:48:00;122.18;;;58.55;;
53339;SDS011;46212;50.258;19.062;2022-11-20T06:50:26;136.27;;;61.00;;
53339;SDS011;46212;50.258;19.062;2022-11-20T06:52:51;131.15;;;56.67;;
53339;SDS011;46212;50.258;19.062;2022-11-20T06:55:16;133.27;;;58.85;;
53339;SDS011;46212;50.258;19.062;2022-11-20T06:57:42;135.35;;;60.30;;
53339;SDS011;46212;50.258;19.062;2022-11-20T07:00:07;137.75;;;60.72;;
53339;SDS011;46212;50.258;19.062;2022-11-20T07:02:33;129.20;;;58.50;;
53339;SDS011;46212;50.258;19.062;2022-11-20T07:04:58;137.00;;;60.00;;
53339;SDS011;46212;50.258;19.062;2022-11-20T07:07:24;149.23;;;65.07;;
53339;SDS011;46212;50.258;19.062;2022-11-20T07:09:49;144.98;;;66.65;;
53339;SDS011;46212;50.258;19.062;2022-11-20T07:12:14;143.63;;;64.93;;
53339;SDS011;46212;50.258;19.062;2022-11-20T07:14:40;149.13;;;69.95;;
53339;SDS011;46212;50.258;19.062;2022-11-20T07:17:05;149.35;;;72.57;;
53339;SDS011;46212;50.258;19.062;2022-11-20T07:19:30;157.93;;;70.93;;
53339;SDS011;46212;50.258;19.062;2022-11-20T07:21:56;162.70;;;72.78;;
53339;SDS011;46212;50.258;19.062;2022-11-20T07:24:21;162.13;;;74.53;;
53339;SDS011;46212;50.258;19.062;2022-11-20T07:26:46;181.82;;;78.25;;
53339;SDS011;46212;50.258;19.062;2022-11-20T07:29:14;160.27;;;73.40;;
53339;SDS011;46212;50.258;19.062;2022-11-20T07:31:40;173.13;;;75.88;;
53339;SDS011;46212;50.258;19.062;2022-11-20T07:34:05;151.65;;;72.18;;
53339;SDS011;46212;50.258;19.062;2022-11-20T07:36:30;159.93;;;76.10;;
53339;SDS011;46212;50.258;19.062;2022-11-20T07:38:56;158.18;;;77.75;;
53339;SDS011;46212;50.258;19.062;2022-11-20T07:41:21;158.80;;;75.88;;
53339;SDS011;46212;50.258;19.062;2022-11-20T07:43:46;157.07;;;77.68;;
53339;SDS011;46212;50.258;19.062;2022-11-20T07:46:11;161.43;;;77.80;;
53339;SDS011;46212;50.258;19.062;2022-11-20T07:48:37;159.80;;;76.25;;
53339;SDS011;46212;50.258;19.062;2022-11-20T07:51:02;174.35;;;79.03;;
53339;SDS011;46212;50.258;19.062;2022-11-20T07:53:28;163.18;;;77.78;;
53339;SDS011;46212;50.258;19.062;2022-11-20T07:55:53;168.45;;;79.05;;
53339;SDS011;46212;50.258;19.062;2022-11-20T07:58:19;180.50;;;79.90;;
53339;SDS011;46212;50.258;19.062;2022-11-20T08:00:45;184.65;;;82.97;;
53339;SDS011;46212;50.258;19.062;2022-11-20T08:03:11;159.85;;;76.93;;
53339;SDS011;46212;50.258;19.062;2022-11-20T08:05:36;153.50;;;74.95;;
53339;SDS011;46212;50.258;19.062;2022-11-20T08:08:02;159.23;;;73.47;;
53339;SDS011;46212;50.258;19.062;2022-11-20T08:10:28;163.38;;;71.25;;
53339;SDS011;46212;50.258;19.062;2022-11-20T08:12:53;161.02;;;73.10;;
53339;SDS011;46212;50.258;19.062;2022-11-20T08:15:39;144.75;;;70.72;;
53339;SDS011;46212;50.258;19.062;2022-11-20T08:20:36;139.18;;;68.55;;
53339;SDS011;46212;50.258;19.062;2022-11-20T08:23:03;162.90;;;72.13;;
53339;SDS011;46212;50.258;19.062;2022-11-20T08:25:30;143.10;;;68.07;;
53339;SDS011;46212;50.258;19.062;2022-11-20T08:27:57;140.15;;;68.15;;
53339;SDS011;46212;50.258;19.062;2022-11-20T08:32:49;137.02;;;63.25;;
53339;SDS011;46212;50.258;19.062;2022-11-20T08:35:14;131.45;;;65.13;;
53339;SDS011;46212;50.258;19.062;2022-11-20T08:37:40;149.40;;;66.30;;
53339;SDS011;46212;50.258;19.062;2022-11-20T08:40:07;145.25;;;66.70;;
53339;SDS011;46212;50.258;19.062;2022-11-20T08:42:36;133.77;;;65.65;;
53339;SDS011;46212;50.258;19.062;2022-11-20T08:45:02;125.90;;;61.80;;
53339;SDS011;46212;50.258;19.062;2022-11-20T08:47:27;130.52;;;59.92;;
53339;SDS011;46212;50.258;19.062;2022-11-20T08:49:53;117.93;;;56.28;;
53339;SDS011;46212;50.258;19.062;2022-11-20T08:52:18;102.18;;;51.78;;
53339;SDS011;46212;50.258;19.062;2022-11-20T08:54:44;96.63;;;48.55;;
53339;SDS011;46212;50.258;19.062;2022-11-20T08:57:09;96.50;;;44.38;;
53339;SDS011;46212;50.258;19.062;2022-11-20T08:59:34;91.47;;;43.03;;
53339;SDS011;46212;50.258;19.062;2022-11-20T09:02:00;85.65;;;42.38;;
53339;SDS011;46212;50.258;19.062;2022-11-20T09:04:25;79.63;;;36.40;;
53339;SDS011;46212;50.258;19.062;2022-11-20T09:06:50;79.72;;;37.55;;
53339;SDS011;46212;50.258;19.062;2022-11-20T09:09:16;80.55;;;37.85;;
53339;SDS011;46212;50.258;19.062;2022-11-20T09:11:43;82.95;;;39.22;;
53339;SDS011;46212;50.258;19.062;2022-11-20T09:14:08;73.47;;;36.92;;
53339;SDS011;46212;50.258;19.062;2022-11-20T09:16:34;76.57;;;34.78;;
53339;SDS011;46212;50.258;19.062;2022-11-20T09:18:59;65.70;;;31.73;;
53339;SDS011;46212;50.258;19.062;2022-11-20T09:21:24;68.07;;;31.92;;
53339;SDS011;46212;50.258;19.062;2022-11-20T09:23:50;64.50;;;32.20;;
53339;SDS011;46212;50.258;19.062;2022-11-20T09:26:15;59.20;;;30.75;;
53339;SDS011;46212;50.258;19.062;2022-11-20T09:28:41;58.30;;;31.35;;
53339;SDS011;46212;50.258;19.062;2022-11-20T09:31:07;64.15;;;31.60;;
53339;SDS011;46212;50.258;19.062;2022-11-20T09:33:33;55.53;;;27.70;;
53339;SDS011;46212;50.258;19.062;2022-11-20T09:35:59;65.30;;;29.83;;
53339;SDS011;46212;50.258;19.062;2022-11-20T09:38:24;52.40;;;26.42;;
53339;SDS011;46212;50.258;19.062;2022-11-20T09:40:57;56.05;;;27.73;;
53339;SDS011;46212;50.258;19.062;2022-11-20T09:54:22;62.65;;;30.92;;
53339;SDS011;46212;50.258;19.062;2022-11-20T09:57:21;47.70;;;27.38;;
53339;SDS011;46212;50.258;19.062;2022-11-20T09:59:54;57.58;;;29.85;;
53339;SDS011;46212;50.258;19.062;2022-11-20T10:04:51;54.72;;;28.60;;
53339;SDS011;46212;50.258;19.062;2022-11-20T10:07:23;53.78;;;26.65;;
53339;SDS011;46212;50.258;19.062;2022-11-20T10:09:55;57.03;;;28.25;;
53339;SDS011;46212;50.258;19.062;2022-11-20T10:12:24;55.03;;;27.27;;
53339;SDS011;46212;50.258;19.062;2022-11-20T10:17:43;51.85;;;26.38;;
53339;SDS011;46212;50.258;19.062;2022-11-20T10:28:10;52.20;;;25.02;;
53339;SDS011;46212;50.258;19.062;2022-11-20T10:30:42;53.15;;;25.77;;
53339;SDS011;46212;50.258;19.062;2022-11-20T10:33:21;56.53;;;26.67;;
53339;SDS011;46212;50.258;19.062;2022-11-20T10:36:04;56.33;;;26.30;;
53339;SDS011;46212;50.258;19.062;2022-11-20T10:38:38;41.88;;;23.63;;
53339;SDS011;46212;50.258;19.062;2022-11-20T10:41:12;47.38;;;21.83;;
53339;SDS011;46212;50.258;19.062;2022-11-20T10:43:51;54.72;;;27.23;;
53339;SDS011;46212;50.258;19.062;2022-11-20T10:46:25;51.50;;;25.88;;
53339;SDS011;46212;50.258;19.062;2022-11-20T10:49:00;55.38;;;25.02;;
53339;SDS011;46212;50.258;19.062;2022-11-20T10:51:48;52.78;;;26.65;;
53339;SDS011;46212;50.258;19.062;2022-11-20T10:57:53;49.70;;;23.52;;
53339;SDS011;46212;50.258;19.062;2022-11-20T11:00:26;46.42;;;22.90;;
53339;SDS011;46212;50.258;19.062;2022-11-20T11:02:52;45.85;;;25.77;;
53339;SDS011;46212;50.258;19.062;2022-11-20T11:07:53;47.85;;;24.17;;
53339;SDS011;46212;50.258;19.062;2022-11-20T11:13:01;58.55;;;25.30;;
53339;SDS011;46212;50.258;19.062;2022-11-20T11:15:38;56.40;;;27.88;;
53339;SDS011;46212;50.258;19.062;2022-11-20T11:18:07;56.88;;;25.30;;
53339;SDS011;46212;50.258;19.062;2022-11-20T11:20:34;48.58;;;25.40;;
53339;SDS011;46212;50.258;19.062;2022-11-20T11:22:59;57.95;;;28.95;;
53339;SDS011;46212;50.258;19.062;2022-11-20T11:25:35;50.33;;;23.40;;
53339;SDS011;46212;50.258;19.062;2022-11-20T11:28:02;199.55;;;103.43;;
53339;SDS011;46212;50.258;19.062;2022-11-20T11:30:43;74.53;;;33.90;;
53339;SDS011;46212;50.258;19.062;2022-11-20T11:33:10;54.67;;;27.02;;
53339;SDS011;46212;50.258;19.062;2022-11-20T11:35:47;66.07;;;29.17;;
53339;SDS011;46212;50.258;19.062;2022-11-20T11:38:36;51.60;;;24.33;;
53339;SDS011;46212;50.258;19.062;2022-11-20T11:41:00;54.83;;;26.02;;
53339;SDS011;46212;50.258;19.062;2022-11-20T11:43:31;47.33;;;25.75;;
53339;SDS011;46212;50.258;19.062;2022-11-20T11:49:02;48.47;;;24.33;;
53339;SDS011;46212;50.258;19.062;2022-11-20T11:54:43;50.30;;;24.20;;
53339;SDS011;46212;50.258;19.062;2022-11-20T11:57:29;51.60;;;24.88;;
53339;SDS011;46212;50.258;19.062;2022-11-20T12:00:16;47.42;;;23.80;;
53339;SDS011;46212;50.258;19.062;2022-11-20T12:05:18;43.47;;;25.65;;
53339;SDS011;46212;50.258;19.062;2022-11-20T12:08:05;45.40;;;24.77;;
53339;SDS011;46212;50.258;19.062;2022-11-20T12:13:50;47.95;;;23.98;;
53339;SDS011;46212;50.258;19.062;2022-11-20T12:16:20;47.42;;;24.33;;
53339;SDS011;46212;50.258;19.062;2022-11-20T12:18:48;62.53;;;30.15;;
53339;SDS011;46212;50.258;19.062;2022-11-20T12:24:23;52.30;;;25.27;;
53339;SDS011;46212;50.258;19.062;2022-11-20T12:47:24;47.22;;;26.13;;
53339;SDS011;46212;50.258;19.062;2022-11-20T12:50:15;53.17;;;25.17;;
53339;SDS011;46212;50.258;19.062;2022-11-20T12:55:23;50.83;;;24.95;;
53339;SDS011;46212;50.258;19.062;2022-11-20T12:58:04;48.47;;;25.67;;
53339;SDS011;46212;50.258;19.062;2022-11-20T13:00:31;52.55;;;24.52;;
53339;SDS011;46212;50.258;19.062;2022-11-20T13:08:18;49.70;;;23.05;;
53339;SDS011;46212;50.258;19.062;2022-11-20T13:13:33;42.30;;;21.40;;
53339;SDS011;46212;50.258;19.062;2022-11-20T13:19:12;48.83;;;22.35;;
53339;SDS011;46212;50.258;19.062;2022-11-20T13:21:43;51.20;;;24.65;;
53339;SDS011;46212;50.258;19.062;2022-11-20T13:27:33;43.63;;;23.95;;
53339;SDS011;46212;50.258;19.062;2022-11-20T13:29:34;45.83;;;24.35;;
53339;SDS011;46212;50.258;19.062;2022-11-20T13:32:06;54.95;;;26.35;;
53339;SDS011;46212;50.258;19.062;2022-11-20T13:34:38;54.67;;;27.25;;
53339;SDS011;46212;50.258;19.062;2022-11-20T13:37:04;48.78;;;26.58;;
53339;SDS011;46212;50.258;19.062;2022-11-20T13:39:31;62.10;;;28.25;;
53339;SDS011;46212;50.258;19.062;2022-11-20T13:44:37;49.47;;;24.67;;
53339;SDS011;46212;50.258;19.062;2022-11-20T13:47:17;49.22;;;26.58;;
53339;SDS011;46212;50.258;19.062;2022-11-20T13:49:47;50.05;;;24.25;;
53339;SDS011;46212;50.258;19.062;2022-11-20T13:52:33;52.15;;;26.15;;
53339;SDS011;46212;50.258;19.062;2022-11-20T14:01:20;49.80;;;26.85;;
53339;SDS011;46212;50.258;19.062;2022-11-20T14:03:48;57.72;;;29.52;;
53339;SDS011;46212;50.258;19.062;2022-11-20T14:06:16;53.30;;;25.98;;
53339;SDS011;46212;50.258;19.062;2022-11-20T14:08:56;51.10;;;25.25;;
53339;SDS011;46212;50.258;19.062;2022-11-20T14:11:24;53.28;;;26.67;;
53339;SDS011;46212;50.258;19.062;2022-11-20T14:16:28;53.75;;;27.67;;
53339;SDS011;46212;50.258;19.062;2022-11-20T14:18:55;60.35;;;29.95;;
53339;SDS011;46212;50.258;19.062;2022-11-20T14:21:25;55.30;;;27.13;;
53339;SDS011;46212;50.258;19.062;2022-11-20T14:23:53;54.03;;;28.80;;
53339;SDS011;46212;50.258;19.062;2022-11-20T14:26:27;63.00;;;29.52;;
53339;SDS011;46212;50.258;19.062;2022-11-20T14:28:53;60.42;;;29.58;;
53339;SDS011;46212;50.258;19.062;2022-11-20T14:31:22;61.63;;;29.30;;
53339;SDS011;46212;50.258;19.062;2022-11-20T14:33:50;57.70;;;28.33;;
53339;SDS011;46212;50.258;19.062;2022-11-20T14:36:20;60.63;;;31.33;;
53339;SDS011;46212;50.258;19.062;2022-11-20T14:38:48;54.00;;;28.98;;
53339;SDS011;46212;50.258;19.062;2022-11-20T14:41:18;63.40;;;30.67;;
53339;SDS011;46212;50.258;19.062;2022-11-20T14:43:46;69.35;;;32.80;;
53339;SDS011;46212;50.258;19.062;2022-11-20T14:46:15;65.07;;;29.83;;
53339;SDS011;46212;50.258;19.062;2022-11-20T14:48:47;64.90;;;31.17;;
53339;SDS011;46212;50.258;19.062;2022-11-20T14:51:32;60.65;;;30.20;;
53339;SDS011;46212;50.258;19.062;2022-11-20T14:54:21;64.15;;;30.55;;
53339;SDS011;46212;50.258;19.062;2022-11-20T14:56:53;61.92;;;29.80;;
53339;SDS011;46212;50.258;19.062;2022-11-20T14:59:42;58.20;;;29.55;;
53339;SDS011;46212;50.258;19.062;2022-11-20T15:02:10;63.40;;;32.70;;
53339;SDS011;46212;50.258;19.062;2022-11-20T15:04:49;67.60;;;29.52;;
53339;SDS011;46212;50.258;19.062;2022-11-20T15:10:20;64.90;;;31.02;;
53339;SDS011;46212;50.258;19.062;2022-11-20T15:15:32;75.05;;;32.38;;
53339;SDS011;46212;50.258;19.062;2022-11-20T15:18:04;65.15;;;31.05;;
53339;SDS011;46212;50.258;19.062;2022-11-20T15:20:30;71.45;;;32.45;;
53339;SDS011;46212;50.258;19.062;2022-11-20T15:22:57;66.90;;;29.42;;
53339;SDS011;46212;50.258;19.062;2022-11-20T15:25:23;65.90;;;33.17;;
53339;SDS011;46212;50.258;19.062;2022-11-20T15:27:50;77.00;;;32.42;;
53339;SDS011;46212;50.258;19.062;2022-11-20T15:30:20;64.50;;;32.15;;
53339;SDS011;46212;50.258;19.062;2022-11-20T15:32:46;77.32;;;35.33;;
53339;SDS011;46212;50.258;19.062;2022-11-20T15:35:13;76.50;;;35.58;;
53339;SDS011;46212;50.258;19.062;2022-11-20T15:37:39;71.50;;;34.85;;
53339;SDS011;46212;50.258;19.062;2022-11-20T15:40:05;137.77;;;71.10;;
53339;SDS011;46212;50.258;19.062;2022-11-20T15:42:31;266.05;;;131.68;;
53339;SDS011;46212;50.258;19.062;2022-11-20T15:44:57;81.68;;;39.80;;
53339;SDS011;46212;50.258;19.062;2022-11-20T15:47:25;76.95;;;35.58;;
53339;SDS011;46212;50.258;19.062;2022-11-20T15:49:54;73.60;;;34.63;;
53339;SDS011;46212;50.258;19.062;2022-11-20T15:52:20;66.85;;;34.28;;
53339;SDS011;46212;50.258;19.062;2022-11-20T15:54:46;81.07;;;34.33;;
53339;SDS011;46212;50.258;19.062;2022-11-20T15:57:11;73.35;;;35.33;;
53339;SDS011;46212;50.258;19.062;2022-11-20T15:59:37;80.82;;;39.42;;
53339;SDS011;46212;50.258;19.062;2022-11-20T16:02:12;77.63;;;37.40;;
53339;SDS011;46212;50.258;19.062;2022-11-20T16:04:39;77.18;;;36.63;;
53339;SDS011;46212;50.258;19.062;2022-11-20T16:07:05;70.57;;;35.88;;